sensor_id;sensor_type;location;lat;lon;timestamp;P1;durP1;ratioP1;P2;durP2;ratioP2
51491;SDS011;37569;50.548;8.778;2023-01-15T00:02:59;1.8;;;1;;
51491;SDS011;37569;50.548;8.778;2023-01-15T00:08:00;0.6;;;0.6;;
51491;SDS011;37569;50.548;8.778;2023-01-15T00:13:00;0.8;;;0.7;;
51491;SDS011;37569;50.548;8.778;2023-01-15T00:18:00;0.7;;;0.6;;
51491;SDS011;37569;50.548;8.778;2023-01-15T00:23:01;1.7;;;0.6;;
51491;SDS011;37569;50.548;8.778;2023-01-15T00:28:01;1;;;0.6;;
51491;SDS011;37569;50.548;8.778;2023-01-15T00:33:01;0.9;;;0.7;;
51491;SDS011;37569;50.548;8.778;2023-01-15T00:38:02;0.8;;;0.7;;
51491;SDS011;37569;50.548;8.778;2023-01-15T00:43:02;1.1;;;0.8;;
51491;SDS011;37569;50.548;8.778;2023-01-15T00:48:02;0.7;;;0.7;;
51491;SDS011;37569;50.548;8.778;2023-01-15T00:53:03;1.4;;;0.8;;
51491;SDS011;37569;50.548;8.778;2023-01-15T00:58:03;1;;;0.8;;
51491;SDS011;37569;50.548;8.778;2023-01-15T01:03:03;0.9;;;0.8;;
51491;SDS011;37569;50.548;8.778;2023-01-15T01:08:04;1.7;;;0.8;;
51491;SDS011;37569;50.548;8.778;2023-01-15T01:13:04;1.6;;;0.9;;
51491;SDS011;37569;50.548;8.778;2023-01-15T01:18:04;1.4;;;1;;
51491;SDS011;37569;50.548;8.778;2023-01-15T01:23:04;1.5;;;0.9;;
51491;SDS011;37569;50.548;8.778;2023-01-15T01:28:05;1.7;;;0.8;;
51491;SDS011;37569;50.548;8.778;2023-01-15T01:33:05;1.1;;;0.8;;
51491;SDS011;37569;50.548;8.778;2023-01-15T01:38:06;0.7;;;0.6;;
51491;SDS011;37569;50.548;8.778;2023-01-15T01:43:08;1.8;;;0.7;;
51491;SDS011;37569;50.548;8.778;2023-01-15T01:48:06;0.7;;;0.7;;
51491;SDS011;37569;50.548;8.778;2023-01-15T01:53:07;0.8;;;0.7;;
51491;SDS011;37569;50.548;8.778;2023-01-15T01:58:07;0.5;;;0.5;;
51491;SDS011;37569;50.548;8.778;2023-01-15T02:03:07;0.8;;;0.6;;
51491;SDS011;37569;50.548;8.778;2023-01-15T02:08:07;0.9;;;0.5;;
51491;SDS011;37569;50.548;8.778;2023-01-15T02:13:09;0.8;;;0.6;;
51491;SDS011;37569;50.548;8.778;2023-01-15T02:18:09;0.6;;;0.6;;
51491;SDS011;37569;50.548;8.778;2023-01-15T02:23:19;0.4;;;0.4;;
51491;SDS011;37569;50.548;8.778;2023-01-15T02:28:09;0.5;;;0.5;;
51491;SDS011;37569;50.548;8.778;2023-01-15T02:33:09;0.7;;;0.5;;
51491;SDS011;37569;50.548;8.778;2023-01-15T02:38:09;0.5;;;0.5;;
51491;SDS011;37569;50.548;8.778;2023-01-15T02:43:09;0.4;;;0.4;;
51491;SDS011;37569;50.548;8.778;2023-01-15T02:48:10;0.5;;;0.5;;
51491;SDS011;37569;50.548;8.778;2023-01-15T02:53:16;1.3;;;0.7;;
51491;SDS011;37569;50.548;8.778;2023-01-15T02:58:10;0.8;;;0.5;;
51491;SDS011;37569;50.548;8.778;2023-01-15T03:03:11;0.9;;;0.5;;
51491;SDS011;37569;50.548;8.778;2023-01-15T03:08:10;0.7;;;0.6;;
51491;SDS011;37569;50.548;8.778;2023-01-15T03:13:10;0.6;;;0.6;;
51491;SDS011;37569;50.548;8.778;2023-01-15T03:18:10;0.6;;;0.6;;
51491;SDS011;37569;50.548;8.778;2023-01-15T03:23:11;1.9;;;0.7;;
51491;SDS011;37569;50.548;8.778;2023-01-15T03:28:11;0.7;;;0.7;;
51491;SDS011;37569;50.548;8.778;2023-01-15T03:33:11;1;;;0.7;;
51491;SDS011;37569;50.548;8.778;2023-01-15T03:38:11;1.4;;;0.7;;
51491;SDS011;37569;50.548;8.778;2023-01-15T03:43:12;0.7;;;0.6;;
51491;SDS011;37569;50.548;8.778;2023-01-15T03:48:13;1.5;;;0.7;;
51491;SDS011;37569;50.548;8.778;2023-01-15T03:53:13;0.7;;;0.7;;
51491;SDS011;37569;50.548;8.778;2023-01-15T03:58:12;0.7;;;0.7;;
51491;SDS011;37569;50.548;8.778;2023-01-15T04:03:12;1;;;0.7;;
51491;SDS011;37569;50.548;8.778;2023-01-15T04:08:12;1;;;0.7;;
51491;SDS011;37569;50.548;8.778;2023-01-15T04:13:12;1.5;;;0.7;;
51491;SDS011;37569;50.548;8.778;2023-01-15T04:18:13;2.2;;;0.8;;
51491;SDS011;37569;50.548;8.778;2023-01-15T04:23:13;1;;;0.7;;
51491;SDS011;37569;50.548;8.778;2023-01-15T04:28:13;0.8;;;0.8;;
51491;SDS011;37569;50.548;8.778;2023-01-15T04:33:13;2.3;;;0.8;;
51491;SDS011;37569;50.548;8.778;2023-01-15T04:38:13;0.9;;;0.7;;
51491;SDS011;37569;50.548;8.778;2023-01-15T04:43:13;2.5;;;0.8;;
51491;SDS011;37569;50.548;8.778;2023-01-15T04:48:14;1.8;;;0.8;;
51491;SDS011;37569;50.548;8.778;2023-01-15T04:53:14;1.4;;;0.8;;
51491;SDS011;37569;50.548;8.778;2023-01-15T04:58:14;0.8;;;0.8;;
51491;SDS011;37569;50.548;8.778;2023-01-15T05:03:14;1.5;;;0.8;;
51491;SDS011;37569;50.548;8.778;2023-01-15T05:08:14;1.1;;;0.7;;
51491;SDS011;37569;50.548;8.778;2023-01-15T05:13:14;1.5;;;0.8;;
51491;SDS011;37569;50.548;8.778;2023-01-15T05:18:15;1.6;;;0.8;;
51491;SDS011;37569;50.548;8.778;2023-01-15T05:23:15;1.2;;;0.8;;
51491;SDS011;37569;50.548;8.778;2023-01-15T05:28:15;1;;;0.8;;
51491;SDS011;37569;50.548;8.778;2023-01-15T05:33:15;2;;;1;;
51491;SDS011;37569;50.548;8.778;2023-01-15T05:38:15;1.4;;;0.8;;
51491;SDS011;37569;50.548;8.778;2023-01-15T05:43:15;1.1;;;0.7;;
51491;SDS011;37569;50.548;8.778;2023-01-15T05:48:15;1;;;0.8;;
51491;SDS011;37569;50.548;8.778;2023-01-15T05:53:16;1.6;;;0.8;;
51491;SDS011;37569;50.548;8.778;2023-01-15T05:58:16;0.9;;;0.7;;
51491;SDS011;37569;50.548;8.778;2023-01-15T06:03:16;1.2;;;0.8;;
51491;SDS011;37569;50.548;8.778;2023-01-15T06:08:16;0.8;;;0.7;;
51491;SDS011;37569;50.548;8.778;2023-01-15T06:13:16;0.6;;;0.6;;
51491;SDS011;37569;50.548;8.778;2023-01-15T06:18:17;1.8;;;0.7;;
51491;SDS011;37569;50.548;8.778;2023-01-15T06:23:17;0.9;;;0.8;;
51491;SDS011;37569;50.548;8.778;2023-01-15T06:28:17;1.2;;;0.8;;
51491;SDS011;37569;50.548;8.778;2023-01-15T06:33:17;1.7;;;0.7;;
51491;SDS011;37569;50.548;8.778;2023-01-15T06:38:17;2.5;;;0.9;;
51491;SDS011;37569;50.548;8.778;2023-01-15T06:43:17;2.3;;;1;;
51491;SDS011;37569;50.548;8.778;2023-01-15T06:48:17;1;;;0.7;;
51491;SDS011;37569;50.548;8.778;2023-01-15T06:53:18;1.8;;;0.8;;
51491;SDS011;37569;50.548;8.778;2023-01-15T06:58:18;1.1;;;0.8;;
51491;SDS011;37569;50.548;8.778;2023-01-15T07:03:18;1.9;;;0.8;;
51491;SDS011;37569;50.548;8.778;2023-01-15T07:08:18;2.3;;;1.1;;
51491;SDS011;37569;50.548;8.778;2023-01-15T07:13:18;1.4;;;0.9;;
51491;SDS011;37569;50.548;8.778;2023-01-15T07:18:18;1.3;;;0.8;;
51491;SDS011;37569;50.548;8.778;2023-01-15T07:23:18;0.7;;;0.7;;
51491;SDS011;37569;50.548;8.778;2023-01-15T07:28:18;1.9;;;0.8;;
51491;SDS011;37569;50.548;8.778;2023-01-15T07:33:19;2.6;;;0.9;;
51491;SDS011;37569;50.548;8.778;2023-01-15T07:38:19;2.2;;;0.8;;
51491;SDS011;37569;50.548;8.778;2023-01-15T07:43:19;1.4;;;0.8;;
51491;SDS011;37569;50.548;8.778;2023-01-15T07:48:19;1.5;;;0.8;;
51491;SDS011;37569;50.548;8.778;2023-01-15T07:53:19;2.3;;;0.9;;
51491;SDS011;37569;50.548;8.778;2023-01-15T07:58:19;1.9;;;0.9;;
51491;SDS011;37569;50.548;8.778;2023-01-15T08:03:19;1.4;;;0.8;;
51491;SDS011;37569;50.548;8.778;2023-01-15T08:08:19;1.5;;;0.8;;
51491;SDS011;37569;50.548;8.778;2023-01-15T08:13:20;2;;;0.8;;
51491;SDS011;37569;50.548;8.778;2023-01-15T08:18:20;0.6;;;0.6;;
51491;SDS011;37569;50.548;8.778;2023-01-15T08:23:20;11.4;;;5.9;;
51491;SDS011;37569;50.548;8.778;2023-01-15T08:28:20;1.5;;;0.7;;
51491;SDS011;37569;50.548;8.778;2023-01-15T08:33:20;1;;;0.7;;
51491;SDS011;37569;50.548;8.778;2023-01-15T08:38:20;2;;;0.8;;
51491;SDS011;37569;50.548;8.778;2023-01-15T08:43:20;1.3;;;0.9;;
51491;SDS011;37569;50.548;8.778;2023-01-15T08:48:20;1.1;;;0.8;;
51491;SDS011;37569;50.548;8.778;2023-01-15T08:53:21;1.1;;;0.8;;
51491;SDS011;37569;50.548;8.778;2023-01-15T08:58:21;2.5;;;1.5;;
51491;SDS011;37569;50.548;8.778;2023-01-15T09:03:21;0.6;;;0.6;;
51491;SDS011;37569;50.548;8.778;2023-01-15T09:08:21;1.3;;;1;;
51491;SDS011;37569;50.548;8.778;2023-01-15T09:13:21;0.7;;;0.7;;
51491;SDS011;37569;50.548;8.778;2023-01-15T09:18:21;0.8;;;0.7;;
51491;SDS011;37569;50.548;8.778;2023-01-15T09:23:21;7.9;;;3;;
51491;SDS011;37569;50.548;8.778;2023-01-15T09:28:21;8.7;;;3.9;;
51491;SDS011;37569;50.548;8.778;2023-01-15T09:33:22;6.9;;;3.4;;
51491;SDS011;37569;50.548;8.778;2023-01-15T09:38:22;5.6;;;2.2;;
51491;SDS011;37569;50.548;8.778;2023-01-15T09:43:26;3.3;;;1.4;;
51491;SDS011;37569;50.548;8.778;2023-01-15T09:48:26;2.5;;;1.6;;
51491;SDS011;37569;50.548;8.778;2023-01-15T09:53:27;3.1;;;1.6;;
51491;SDS011;37569;50.548;8.778;2023-01-15T09:58:25;2.1;;;1.9;;
51491;SDS011;37569;50.548;8.778;2023-01-15T10:03:24;1.6;;;1.5;;
51491;SDS011;37569;50.548;8.778;2023-01-15T10:08:23;1.1;;;1;;
51491;SDS011;37569;50.548;8.778;2023-01-15T10:13:26;2.6;;;1.6;;
51491;SDS011;37569;50.548;8.778;2023-01-15T10:18:23;2;;;1.2;;
51491;SDS011;37569;50.548;8.778;2023-01-15T10:23:28;1.3;;;1;;
51491;SDS011;37569;50.548;8.778;2023-01-15T10:28:24;2.8;;;1.2;;
51491;SDS011;37569;50.548;8.778;2023-01-15T10:33:27;1.8;;;1;;
51491;SDS011;37569;50.548;8.778;2023-01-15T10:38:25;1.8;;;1.2;;
51491;SDS011;37569;50.548;8.778;2023-01-15T10:43:24;2;;;1.1;;
51491;SDS011;37569;50.548;8.778;2023-01-15T10:48:25;1.9;;;1;;
51491;SDS011;37569;50.548;8.778;2023-01-15T10:53:26;1.5;;;0.9;;
51491;SDS011;37569;50.548;8.778;2023-01-15T10:58:24;1.1;;;0.8;;
51491;SDS011;37569;50.548;8.778;2023-01-15T11:03:28;2.1;;;0.9;;
51491;SDS011;37569;50.548;8.778;2023-01-15T11:08:25;1.6;;;0.8;;
51491;SDS011;37569;50.548;8.778;2023-01-15T11:13:25;1.5;;;0.9;;
51491;SDS011;37569;50.548;8.778;2023-01-15T11:18:26;3.3;;;1.1;;
51491;SDS011;37569;50.548;8.778;2023-01-15T11:23:25;4;;;1.6;;
51491;SDS011;37569;50.548;8.778;2023-01-15T11:28:29;3;;;1.6;;
51491;SDS011;37569;50.548;8.778;2023-01-15T11:33:26;3.7;;;1.8;;
51491;SDS011;37569;50.548;8.778;2023-01-15T11:38:26;2.1;;;1.1;;
51491;SDS011;37569;50.548;8.778;2023-01-15T11:43:26;3.5;;;1.4;;
51491;SDS011;37569;50.548;8.778;2023-01-15T11:48:26;2.4;;;1.1;;
51491;SDS011;37569;50.548;8.778;2023-01-15T11:53:27;3.8;;;1.2;;
51491;SDS011;37569;50.548;8.778;2023-01-15T11:58:26;5.2;;;2.4;;
51491;SDS011;37569;50.548;8.778;2023-01-15T12:03:27;2.8;;;1.1;;
51491;SDS011;37569;50.548;8.778;2023-01-15T12:08:32;3.5;;;1.2;;
51491;SDS011;37569;50.548;8.778;2023-01-15T12:13:27;4;;;1.5;;
51491;SDS011;37569;50.548;8.778;2023-01-15T12:18:33;3.5;;;1.2;;
51491;SDS011;37569;50.548;8.778;2023-01-15T12:23:32;2.7;;;1.1;;
51491;SDS011;37569;50.548;8.778;2023-01-15T12:28:28;1.7;;;1;;
51491;SDS011;37569;50.548;8.778;2023-01-15T12:33:31;2.3;;;1.2;;
51491;SDS011;37569;50.548;8.778;2023-01-15T12:38:33;3.2;;;1.2;;
51491;SDS011;37569;50.548;8.778;2023-01-15T12:43:28;3;;;1.1;;
51491;SDS011;37569;50.548;8.778;2023-01-15T12:48:28;3.4;;;1.2;;
51491;SDS011;37569;50.548;8.778;2023-01-15T12:53:29;2;;;1.2;;
51491;SDS011;37569;50.548;8.778;2023-01-15T12:58:32;3;;;1;;
51491;SDS011;37569;50.548;8.778;2023-01-15T13:03:29;2.9;;;1.1;;
51491;SDS011;37569;50.548;8.778;2023-01-15T13:08:30;2.5;;;1.2;;
51491;SDS011;37569;50.548;8.778;2023-01-15T13:13:29;2.9;;;1.1;;
51491;SDS011;37569;50.548;8.778;2023-01-15T13:18:32;4;;;1.1;;
51491;SDS011;37569;50.548;8.778;2023-01-15T13:23:34;2.6;;;1.1;;
51491;SDS011;37569;50.548;8.778;2023-01-15T13:28:33;1.9;;;1;;
51491;SDS011;37569;50.548;8.778;2023-01-15T13:33:31;2.9;;;1.1;;
51491;SDS011;37569;50.548;8.778;2023-01-15T13:38:31;5.4;;;1.2;;
51491;SDS011;37569;50.548;8.778;2023-01-15T13:43:32;2.8;;;0.9;;
51491;SDS011;37569;50.548;8.778;2023-01-15T13:48:32;2.7;;;0.9;;
51491;SDS011;37569;50.548;8.778;2023-01-15T13:53:31;2.1;;;1;;
51491;SDS011;37569;50.548;8.778;2023-01-15T13:58:32;3.2;;;0.9;;
51491;SDS011;37569;50.548;8.778;2023-01-15T14:03:32;3.2;;;0.8;;
51491;SDS011;37569;50.548;8.778;2023-01-15T14:08:36;1.9;;;1;;
51491;SDS011;37569;50.548;8.778;2023-01-15T14:13:38;2.7;;;0.9;;
51491;SDS011;37569;50.548;8.778;2023-01-15T14:18:35;2.6;;;1;;
51491;SDS011;37569;50.548;8.778;2023-01-15T14:23:36;2.2;;;1;;
51491;SDS011;37569;50.548;8.778;2023-01-15T14:28:37;3.5;;;0.9;;
51491;SDS011;37569;50.548;8.778;2023-01-15T14:33:33;2.6;;;1.2;;
51491;SDS011;37569;50.548;8.778;2023-01-15T14:38:33;3.3;;;1;;
51491;SDS011;37569;50.548;8.778;2023-01-15T14:43:34;3.6;;;1.1;;
51491;SDS011;37569;50.548;8.778;2023-01-15T14:48:35;4.4;;;1.3;;
51491;SDS011;37569;50.548;8.778;2023-01-15T14:53:35;3.1;;;1.1;;
51491;SDS011;37569;50.548;8.778;2023-01-15T14:58:36;4.7;;;1.4;;
51491;SDS011;37569;50.548;8.778;2023-01-15T15:03:35;3.2;;;1.1;;
51491;SDS011;37569;50.548;8.778;2023-01-15T15:08:34;2.9;;;1.4;;
51491;SDS011;37569;50.548;8.778;2023-01-15T15:13:35;3.3;;;1.1;;
51491;SDS011;37569;50.548;8.778;2023-01-15T15:18:35;2.2;;;1;;
51491;SDS011;37569;50.548;8.778;2023-01-15T15:23:36;2.4;;;1.1;;
51491;SDS011;37569;50.548;8.778;2023-01-15T15:28:35;4.7;;;1.1;;
51491;SDS011;37569;50.548;8.778;2023-01-15T15:33:36;4.3;;;1.5;;
51491;SDS011;37569;50.548;8.778;2023-01-15T15:38:35;3.7;;;1.3;;
51491;SDS011;37569;50.548;8.778;2023-01-15T15:43:38;4.6;;;1.5;;
51491;SDS011;37569;50.548;8.778;2023-01-15T15:48:35;3.8;;;1.2;;
51491;SDS011;37569;50.548;8.778;2023-01-15T15:53:35;2.5;;;1.1;;
51491;SDS011;37569;50.548;8.778;2023-01-15T15:58:36;2.6;;;1.3;;
51491;SDS011;37569;50.548;8.778;2023-01-15T16:03:43;3.2;;;1.4;;
51491;SDS011;37569;50.548;8.778;2023-01-15T16:08:36;4.6;;;1.4;;
51491;SDS011;37569;50.548;8.778;2023-01-15T16:13:37;5.2;;;1.3;;
51491;SDS011;37569;50.548;8.778;2023-01-15T16:18:38;2.5;;;1.2;;
51491;SDS011;37569;50.548;8.778;2023-01-15T16:23:37;4;;;1.3;;
51491;SDS011;37569;50.548;8.778;2023-01-15T16:28:37;3.4;;;1.2;;
51491;SDS011;37569;50.548;8.778;2023-01-15T16:33:37;5.1;;;2.2;;
51491;SDS011;37569;50.548;8.778;2023-01-15T16:38:39;3.1;;;1.2;;
51491;SDS011;37569;50.548;8.778;2023-01-15T16:43:49;4.5;;;1.7;;
51491;SDS011;37569;50.548;8.778;2023-01-15T16:48:37;2.7;;;1.3;;
51491;SDS011;37569;50.548;8.778;2023-01-15T16:53:38;2.3;;;1.2;;
51491;SDS011;37569;50.548;8.778;2023-01-15T16:58:38;5.6;;;2.3;;
51491;SDS011;37569;50.548;8.778;2023-01-15T17:03:38;3.3;;;1.3;;
51491;SDS011;37569;50.548;8.778;2023-01-15T17:08:38;3.2;;;1.2;;
51491;SDS011;37569;50.548;8.778;2023-01-15T17:13:38;3.5;;;1.2;;
51491;SDS011;37569;50.548;8.778;2023-01-15T17:18:38;3.6;;;1.2;;
51491;SDS011;37569;50.548;8.778;2023-01-15T17:23:39;2.2;;;1.2;;
51491;SDS011;37569;50.548;8.778;2023-01-15T17:28:38;2.7;;;1.1;;
51491;SDS011;37569;50.548;8.778;2023-01-15T17:33:38;2.4;;;1.2;;
51491;SDS011;37569;50.548;8.778;2023-01-15T17:38:39;3.7;;;1.3;;
51491;SDS011;37569;50.548;8.778;2023-01-15T17:43:39;2.9;;;1.3;;
51491;SDS011;37569;50.548;8.778;2023-01-15T17:48:39;3.6;;;1.1;;
51491;SDS011;37569;50.548;8.778;2023-01-15T17:53:39;3.3;;;1.3;;
51491;SDS011;37569;50.548;8.778;2023-01-15T17:58:39;2.6;;;1.4;;
51491;SDS011;37569;50.548;8.778;2023-01-15T18:03:42;4.3;;;1.4;;
51491;SDS011;37569;50.548;8.778;2023-01-15T18:08:40;2.1;;;1.2;;
51491;SDS011;37569;50.548;8.778;2023-01-15T18:13:40;4.7;;;1.6;;
51491;SDS011;37569;50.548;8.778;2023-01-15T18:18:40;2.2;;;1.3;;
51491;SDS011;37569;50.548;8.778;2023-01-15T18:23:40;5;;;1.5;;
51491;SDS011;37569;50.548;8.778;2023-01-15T18:28:40;4.8;;;1.7;;
51491;SDS011;37569;50.548;8.778;2023-01-15T18:33:40;3.7;;;1.7;;
51491;SDS011;37569;50.548;8.778;2023-01-15T18:38:41;4;;;1.6;;
51491;SDS011;37569;50.548;8.778;2023-01-15T18:43:41;3.9;;;1.7;;
51491;SDS011;37569;50.548;8.778;2023-01-15T18:48:41;4.6;;;1.6;;
51491;SDS011;37569;50.548;8.778;2023-01-15T18:53:41;3.6;;;1.4;;
51491;SDS011;37569;50.548;8.778;2023-01-15T18:58:41;4.7;;;1.6;;
51491;SDS011;37569;50.548;8.778;2023-01-15T19:03:42;2.8;;;1.1;;
51491;SDS011;37569;50.548;8.778;2023-01-15T19:08:42;4.3;;;1.7;;
51491;SDS011;37569;50.548;8.778;2023-01-15T19:13:42;4.1;;;1.4;;
51491;SDS011;37569;50.548;8.778;2023-01-15T19:18:42;4.4;;;1.7;;
51491;SDS011;37569;50.548;8.778;2023-01-15T19:23:42;3;;;1.5;;
51491;SDS011;37569;50.548;8.778;2023-01-15T19:28:42;4.2;;;1.6;;
51491;SDS011;37569;50.548;8.778;2023-01-15T19:33:42;6.5;;;1.7;;
51491;SDS011;37569;50.548;8.778;2023-01-15T19:38:42;3;;;1.6;;
51491;SDS011;37569;50.548;8.778;2023-01-15T19:43:42;5;;;1.8;;
51491;SDS011;37569;50.548;8.778;2023-01-15T19:48:43;4.1;;;1.7;;
51491;SDS011;37569;50.548;8.778;2023-01-15T19:53:43;3.3;;;1.6;;
51491;SDS011;37569;50.548;8.778;2023-01-15T19:58:43;3.4;;;1.6;;
51491;SDS011;37569;50.548;8.778;2023-01-15T20:03:43;4.6;;;1.8;;
51491;SDS011;37569;50.548;8.778;2023-01-15T20:08:43;4.1;;;1.5;;
51491;SDS011;37569;50.548;8.778;2023-01-15T20:13:43;4.8;;;1.5;;
51491;SDS011;37569;50.548;8.778;2023-01-15T20:18:43;6.3;;;1.8;;
51491;SDS011;37569;50.548;8.778;2023-01-15T20:23:44;3.3;;;1.4;;
51491;SDS011;37569;50.548;8.778;2023-01-15T20:28:43;5.9;;;2;;
51491;SDS011;37569;50.548;8.778;2023-01-15T20:33:44;3.6;;;1.6;;
51491;SDS011;37569;50.548;8.778;2023-01-15T20:38:44;4;;;1.6;;
51491;SDS011;37569;50.548;8.778;2023-01-15T20:43:44;2.7;;;1.4;;
51491;SDS011;37569;50.548;8.778;2023-01-15T20:48:44;4;;;1.8;;
51491;SDS011;37569;50.548;8.778;2023-01-15T20:53:44;4.3;;;1.8;;
51491;SDS011;37569;50.548;8.778;2023-01-15T20:58:44;5.5;;;2.5;;
51491;SDS011;37569;50.548;8.778;2023-01-15T21:03:44;5.4;;;2.1;;
51491;SDS011;37569;50.548;8.778;2023-01-15T21:08:44;6.4;;;2;;
51491;SDS011;37569;50.548;8.778;2023-01-15T21:13:44;3.8;;;1.7;;
51491;SDS011;37569;50.548;8.778;2023-01-15T21:18:45;6.9;;;2.9;;
51491;SDS011;37569;50.548;8.778;2023-01-15T21:23:45;5.9;;;2.3;;
51491;SDS011;37569;50.548;8.778;2023-01-15T21:28:45;4.5;;;2;;
51491;SDS011;37569;50.548;8.778;2023-01-15T21:33:45;4.2;;;1.8;;
51491;SDS011;37569;50.548;8.778;2023-01-15T21:38:48;7;;;2.6;;
51491;SDS011;37569;50.548;8.778;2023-01-15T21:43:45;2.9;;;1.5;;
51491;SDS011;37569;50.548;8.778;2023-01-15T21:48:45;2.7;;;1.4;;
51491;SDS011;37569;50.548;8.778;2023-01-15T21:53:45;2.8;;;1.4;;
51491;SDS011;37569;50.548;8.778;2023-01-15T21:58:46;2.5;;;1.4;;
51491;SDS011;37569;50.548;8.778;2023-01-15T22:03:45;3.4;;;1.6;;
51491;SDS011;37569;50.548;8.778;2023-01-15T22:08:46;4.8;;;1.7;;
51491;SDS011;37569;50.548;8.778;2023-01-15T22:13:47;3.2;;;1.5;;
51491;SDS011;37569;50.548;8.778;2023-01-15T22:18:46;4.9;;;1.5;;
51491;SDS011;37569;50.548;8.778;2023-01-15T22:23:46;4.7;;;1.5;;
51491;SDS011;37569;50.548;8.778;2023-01-15T22:28:46;3.2;;;1.4;;
51491;SDS011;37569;50.548;8.778;2023-01-15T22:33:46;2.9;;;1.3;;
51491;SDS011;37569;50.548;8.778;2023-01-15T22:38:46;2.1;;;1.3;;
51491;SDS011;37569;50.548;8.778;2023-01-15T22:43:46;3.9;;;1.3;;
51491;SDS011;37569;50.548;8.778;2023-01-15T22:48:47;4.3;;;1.5;;
51491;SDS011;37569;50.548;8.778;2023-01-15T22:53:47;3.7;;;1.5;;
51491;SDS011;37569;50.548;8.778;2023-01-15T22:58:47;4;;;1.6;;
51491;SDS011;37569;50.548;8.778;2023-01-15T23:03:47;4;;;1.6;;
51491;SDS011;37569;50.548;8.778;2023-01-15T23:08:47;5.2;;;1.6;;
51491;SDS011;37569;50.548;8.778;2023-01-15T23:13:47;4.3;;;1.5;;
51491;SDS011;37569;50.548;8.778;2023-01-15T23:18:47;6.7;;;1.9;;
51491;SDS011;37569;50.548;8.778;2023-01-15T23:23:51;6;;;2;;
51491;SDS011;37569;50.548;8.778;2023-01-15T23:28:47;4.6;;;1.5;;
51491;SDS011;37569;50.548;8.778;2023-01-15T23:33:47;5.9;;;1.7;;
51491;SDS011;37569;50.548;8.778;2023-01-15T23:38:47;3.2;;;1.8;;
51491;SDS011;37569;50.548;8.778;2023-01-15T23:43:48;3.4;;;1.5;;
51491;SDS011;37569;50.548;8.778;2023-01-15T23:48:48;2.9;;;1.8;;
51491;SDS011;37569;50.548;8.778;2023-01-15T23:53:48;4.6;;;1.6;;
51491;SDS011;37569;50.548;8.778;2023-01-15T23:58:48;4;;;1.6;;
